TimeCST,TemperatureF,Dew PointF,Humidity,Sea Level PressureIn,VisibilityMPH,Wind Direction,Wind SpeedMPH,Gust SpeedMPH,PrecipitationIn,Events,Conditions,WindDirDegrees,DateUTC
12:53 AM,12.0,1.0,61,30.39,10.0,WSW,6.9,-,N/A,,Mostly Cloudy,250,2013-01-23 06:53:00
1:53 AM,10.9,1.9,67,30.38,10.0,West,4.6,-,N/A,,Scattered Clouds,270,2013-01-23 07:53:00
2:53 AM,14.0,1.9,59,30.38,10.0,West,6.9,-,N/A,,Overcast,260,2013-01-23 08:53:00
3:53 AM,15.1,1.0,54,30.36,10.0,West,6.9,-,N/A,,Overcast,260,2013-01-23 09:53:00
4:53 AM,15.1,1.0,54,30.35,10.0,West,5.8,-,N/A,,Overcast,260,2013-01-23 10:53:00
5:53 AM,15.1,1.0,54,30.35,10.0,West,3.5,-,N/A,,Overcast,270,2013-01-23 11:53:00
6:53 AM,15.1,1.0,54,30.34,10.0,SSW,5.8,-,N/A,,Overcast,210,2013-01-23 12:53:00
7:53 AM,16.0,1.0,52,30.34,10.0,SSW,6.9,-,N/A,,Overcast,200,2013-01-23 13:53:00
8:53 AM,17.1,3.0,54,30.32,10.0,South,11.5,-,N/A,,Overcast,190,2013-01-23 14:53:00
9:53 AM,19.0,5.0,54,30.33,10.0,South,8.1,-,N/A,,Overcast,190,2013-01-23 15:53:00
10:53 AM,21.9,7.0,53,30.30,10.0,SSW,10.4,-,N/A,,Overcast,210,2013-01-23 16:53:00
11:53 AM,24.1,9.0,53,30.26,10.0,SSW,10.4,-,N/A,,Overcast,210,2013-01-23 17:53:00
12:53 PM,28.0,10.0,47,30.20,10.0,SW,8.1,-,N/A,,Mostly Cloudy,230,2013-01-23 18:53:00
1:53 PM,30.0,12.0,47,30.18,10.0,West,10.4,16.1,N/A,,Mostly Cloudy,260,2013-01-23 19:53:00
2:53 PM,32.0,12.9,45,30.15,10.0,West,11.5,19.6,N/A,,Mostly Cloudy,270,2013-01-23 20:53:00
4:53 PM,30.0,15.1,54,30.14,10.0,West,10.4,-,N/A,,Clear,260,2013-01-23 22:53:00
5:53 PM,27.0,16.0,63,30.14,10.0,West,10.4,-,N/A,,Clear,270,2013-01-23 23:53:00
6:53 PM,21.9,15.1,75,30.17,10.0,WNW,6.9,-,N/A,,Clear,290,2013-01-24 00:53:00
7:53 PM,25.0,16.0,69,30.19,10.0,WNW,12.7,-,N/A,,Clear,290,2013-01-24 01:53:00
8:53 PM,24.1,15.1,69,30.22,10.0,NW,16.1,-,N/A,,Clear,310,2013-01-24 02:53:00
9:53 PM,23.0,12.9,65,30.25,10.0,NW,20.7,31.1,N/A,,Clear,320,2013-01-24 03:53:00
10:53 PM,19.0,8.1,62,30.30,10.0,NNW,25.3,34.5,N/A,,Partly Cloudy,330,2013-01-24 04:53:00
11:53 PM,17.1,7.0,65,30.34,10.0,NNW,19.6,-,N/A,,Clear,330,2013-01-24 05:53:00